Time;durP1;ratioP1;P1;durP2;ratioP2;P2;SDS_P1;SDS_P2;PMS_P1;PMS_P2;Temp;Humidity;BMP_temperature;BMP_pressure;BME280_temperature;BME280_humidity;BME280_pressure;Samples;Min_cycle;Max_cycle;Signal;HPM_P1;HPM_P2
2023/06/03 06:32:56;;;;;;;4.00;0.60;;;;;;;17.92;56.85;100423.06;5089617;27;21102;-50
2023/06/03 06:35:26;;;;;;;1.67;1.43;;;;;;;18.03;56.93;100426.03;5089381;28;20476;-49
2023/06/03 06:37:56;;;;;;;2.00;1.10;;;;;;;17.84;55.47;100436.13;5076733;28;20470;-50
2023/06/03 06:40:29;;;;;;;4.83;1.47;;;;;;;18.18;55.60;100428.78;5081217;28;20453;-49
2023/06/03 06:43:42;;;;;;;2.83;1.67;;;;;;;18.48;55.20;100423.44;5089389;28;20568;-50
2023/06/03 06:46:09;;;;;;;7.50;1.20;;;;;;;18.05;55.36;100426.81;5070714;28;20450;-50
2023/06/03 06:48:38;;;;;;;3.30;1.60;;;;;;;17.86;56.02;100426.13;5049407;28;20451;-50
2023/06/03 06:51:06;;;;;;;1.03;0.90;;;;;;;17.98;56.19;100424.56;5049481;28;20832;-50
2023/06/03 06:53:36;;;;;;;1.50;1.40;;;;;;;18.31;55.15;100433.38;5049587;28;20474;-50
2023/06/03 06:56:08;;;;;;;1.13;1.03;;;;;;;17.93;56.15;100430.19;5049308;28;20455;-50
2023/06/03 06:58:37;;;;;;;0.90;0.80;;;;;;;18.13;55.09;100421.00;5049353;28;20461;-50
2023/06/03 07:01:07;;;;;;;4.60;0.90;;;;;;;18.21;54.82;100429.47;5052834;28;20473;-49
2023/06/03 07:03:35;;;;;;;2.10;1.23;;;;;;;18.26;53.89;100429.22;5051386;28;20494;-50
2023/06/03 07:06:02;;;;;;;4.00;1.03;;;;;;;17.98;55.09;100425.44;5053652;28;20500;-49
2023/06/03 07:08:29;;;;;;;3.27;1.83;;;;;;;17.91;54.81;100420.47;5050233;28;20486;-50
2023/06/03 07:10:58;;;;;;;2.93;1.70;;;;;;;17.75;55.74;100425.84;5062819;28;20465;-50
2023/06/03 07:13:26;;;;;;;8.33;1.27;;;;;;;18.23;54.84;100424.03;5055963;28;20878;-50
2023/06/03 07:15:53;;;;;;;3.13;1.30;;;;;;;18.24;54.97;100421.25;5050018;28;20462;-50
2023/06/03 07:18:21;;;;;;;0.80;0.70;;;;;;;18.24;54.57;100417.69;5049278;28;20478;-50
2023/06/03 07:20:48;;;;;;;2.50;1.33;;;;;;;18.12;54.60;100423.78;5049908;28;20459;-49
2023/06/03 07:23:45;;;;;;;0.60;0.50;;;;;;;18.34;53.79;100435.00;5051509;28;20921;-50
2023/06/03 07:26:12;;;;;;;1.73;1.57;;;;;;;18.00;54.29;100434.28;5040136;28;20455;-50
2023/06/03 07:28:38;;;;;;;1.10;0.90;;;;;;;18.55;54.21;100436.47;5058489;28;20806;-50
2023/06/03 07:31:08;;;;;;;1.07;0.97;;;;;;;18.71;53.55;100433.75;5041714;28;20477;-50
2023/06/03 07:33:50;;;;;;;1.27;1.17;;;;;;;18.67;52.93;100434.91;5050361;28;20443;-50
2023/06/03 07:36:19;;;;;;;2.07;1.10;;;;;;;18.77;52.05;100432.50;5059765;28;20496;-50
2023/06/03 07:38:57;;;;;;;1.13;1.03;;;;;;;19.16;53.16;100435.47;5056390;28;20455;-50
2023/06/03 07:41:34;;;;;;;30.07;1.30;;;;;;;19.05;52.81;100440.66;5058787;28;20458;-50
2023/06/03 07:44:06;;;;;;;2.70;1.23;;;;;;;19.00;52.62;100439.19;5056122;28;20454;-49
2023/06/03 07:46:43;;;;;;;3.17;1.10;;;;;;;18.65;52.52;100442.22;5041269;28;21078;-50
2023/06/03 07:49:15;;;;;;;1.10;1.00;;;;;;;19.16;51.76;100448.06;5060675;28;20478;-50
2023/06/03 07:51:47;;;;;;;10.70;1.80;;;;;;;18.73;52.15;100452.50;5051809;28;20473;-50
2023/06/03 07:54:15;;;;;;;4.93;0.70;;;;;;;18.88;51.34;100436.28;5043965;28;20980;-50
2023/06/03 07:56:42;;;;;;;1.23;1.07;;;;;;;18.79;51.75;100447.63;5034913;28;20521;-50
2023/06/03 07:59:11;;;;;;;1.90;1.00;;;;;;;19.21;51.15;100451.38;5034933;28;20462;-50
2023/06/03 08:01:38;;;;;;;4.80;0.90;;;;;;;19.27;51.61;100448.28;5037898;28;20504;-50
2023/06/03 08:04:23;;;;;;;7.73;1.70;;;;;;;19.03;51.98;100450.66;5040542;28;20479;-50
2023/06/03 08:06:52;;;;;;;1.53;1.43;;;;;;;19.03;51.96;100449.78;5040134;28;20533;-50
2023/06/03 08:09:27;;;;;;;1.10;1.00;;;;;;;18.79;52.23;100447.63;5033783;28;20458;-50
2023/06/03 08:11:55;;;;;;;1.40;1.30;;;;;;;18.81;51.68;100443.03;5035100;28;20451;-50
2023/06/03 08:14:24;;;;;;;5.83;1.97;;;;;;;18.32;52.60;100443.19;5022609;28;20448;-50
2023/06/03 08:16:51;;;;;;;1.00;0.90;;;;;;;19.02;52.69;100435.44;5042497;28;20489;-50
2023/06/03 08:19:18;;;;;;;1.87;1.77;;;;;;;19.36;51.91;100446.84;5038681;28;20455;-50
2023/06/03 08:21:44;;;;;;;1.80;1.23;;;;;;;18.90;52.64;100437.06;5035788;28;20455;-50
2023/06/03 08:24:12;;;;;;;1.63;1.17;;;;;;;19.30;51.76;100447.22;5044336;28;20456;-50
2023/06/03 08:26:45;;;;;;;1.00;0.77;;;;;;;19.28;52.11;100450.00;5034124;28;20989;-49
2023/06/03 08:29:12;;;;;;;0.80;0.80;;;;;;;19.61;51.20;100436.28;5042459;28;20513;-50
2023/06/03 08:31:39;;;;;;;2.13;1.93;;;;;;;19.58;51.55;100439.16;5034567;28;20490;-50
2023/06/03 08:34:06;;;;;;;1.57;1.27;;;;;;;19.54;51.29;100445.69;5042548;28;20455;-50
2023/06/03 08:36:32;;;;;;;3.53;1.37;;;;;;;19.19;51.46;100446.06;5049741;28;20493;-50
2023/06/03 08:38:59;;;;;;;1.17;1.07;;;;;;;19.09;51.52;100442.22;5041952;28;20504;-50
2023/06/03 08:41:35;;;;;;;2.80;1.43;;;;;;;18.84;52.42;100436.56;5038486;28;20447;-50
2023/06/03 08:44:13;;;;;;;1.57;1.20;;;;;;;19.05;52.06;100448.75;5040808;28;20483;-49
2023/06/03 08:46:56;;;;;;;1.47;1.23;;;;;;;19.41;52.21;100448.28;5035913;28;20497;-50
2023/06/03 08:49:33;;;;;;;2.70;1.00;;;;;;;19.40;51.86;100448.38;5036512;28;20490;-55
2023/06/03 08:52:03;;;;;;;1.20;1.10;;;;;;;19.69;50.98;100444.75;5046968;28;20536;-49
2023/06/03 08:54:34;;;;;;;4.20;2.57;;;;;;;19.70;50.60;100441.06;5035785;28;20455;-49
2023/06/03 08:57:08;;;;;;;1.13;1.03;;;;;;;19.72;50.11;100443.69;5033729;28;20471;-49
2023/06/03 08:59:37;;;;;;;4.43;1.57;;;;;;;19.63;50.45;100447.84;5033799;28;20451;-50
2023/06/03 09:02:05;;;;;;;2.30;1.17;;;;;;;20.03;50.00;100434.50;5033791;28;20451;-50
2023/06/03 09:04:32;;;;;;;2.60;1.07;;;;;;;19.98;49.65;100437.47;5033580;28;20456;-49
2023/06/03 09:07:03;;;;;;;1.20;1.00;;;;;;;20.28;50.48;100431.88;5032990;28;21127;-50
2023/06/03 09:09:31;;;;;;;0.80;0.80;;;;;;;20.49;49.85;100439.56;5033816;28;20928;-50
2023/06/03 09:11:59;;;;;;;7.77;1.03;;;;;;;19.98;49.35;100442.00;5033661;28;20451;-49
2023/06/03 09:14:27;;;;;;;7.83;0.93;;;;;;;20.21;49.70;100444.06;5033606;28;20452;-50
2023/06/03 09:16:53;;;;;;;1.37;1.17;;;;;;;20.25;50.00;100442.88;5033514;28;20507;-49
2023/06/03 09:19:20;;;;;;;1.60;1.50;;;;;;;20.32;48.66;100443.34;5033457;28;20498;-50
2023/06/03 09:21:49;;;;;;;1.10;1.00;;;;;;;20.15;49.52;100439.09;5033447;28;20505;-49
2023/06/03 09:24:16;;;;;;;0.80;0.80;;;;;;;20.38;50.08;100443.81;5033272;28;20522;-49
2023/06/03 09:26:43;;;;;;;2.27;0.90;;;;;;;20.38;49.58;100449.19;5033517;28;20463;-49
2023/06/03 09:29:11;;;;;;;1.37;1.17;;;;;;;21.18;49.71;100438.38;5033176;28;20842;-49
2023/06/03 09:31:38;;;;;;;1.67;1.10;;;;;;;21.01;47.71;100439.56;5033363;28;20471;-49
2023/06/03 09:34:05;;;;;;;1.83;1.30;;;;;;;20.80;48.59;100441.91;5033346;28;20447;-49
2023/06/03 09:36:46;;;;;;;1.27;1.17;;;;;;;20.88;48.82;100438.69;5032854;28;20464;-49
2023/06/03 09:39:17;;;;;;;4.40;1.20;;;;;;;20.93;49.82;100442.78;5032925;28;20878;-49
2023/06/03 09:41:44;;;;;;;1.03;0.93;;;;;;;20.97;48.23;100441.63;5032822;28;20471;-49
2023/06/03 09:44:11;;;;;;;2.40;1.37;;;;;;;20.77;48.33;100442.13;5033014;28;20491;-49
2023/06/03 09:46:38;;;;;;;1.20;0.80;;;;;;;21.28;48.55;100444.91;5019903;28;20550;-49
2023/06/03 09:49:09;;;;;;;1.20;0.90;;;;;;;20.67;49.45;100441.88;5032852;28;20451;-49
2023/06/03 09:51:43;;;;;;;2.17;1.97;;;;;;;20.90;48.91;100439.44;5032425;28;20601;-49
2023/06/03 09:54:17;;;;;;;1.73;1.13;;;;;;;20.90;48.59;100440.31;5032649;28;20446;-49
2023/06/03 09:56:47;;;;;;;1.20;0.83;;;;;;;20.97;49.68;100438.06;5032700;28;20474;-49
2023/06/03 09:59:21;;;;;;;0.97;0.77;;;;;;;21.26;48.11;100438.75;5032774;28;20447;-49
2023/06/03 10:01:49;;;;;;;3.00;1.50;;;;;;;21.04;49.18;100439.34;5032687;28;21012;-50
2023/06/03 10:04:34;;;;;;;2.10;1.30;;;;;;;20.65;48.68;100441.09;5032399;28;20487;-50
2023/06/03 10:07:11;;;;;;;1.40;1.30;;;;;;;20.75;48.04;100441.34;5032435;28;21044;-49
2023/06/03 10:09:39;;;;;;;9.97;1.10;;;;;;;21.31;48.99;100433.88;5032418;28;20940;-49
2023/06/03 10:12:07;;;;;;;8.63;1.60;;;;;;;21.14;47.93;100440.44;5032421;28;20497;-49
2023/06/03 10:14:44;;;;;;;5.10;1.27;;;;;;;21.35;49.09;100432.66;5032417;28;20447;-50
2023/06/03 10:17:12;;;;;;;3.30;1.30;;;;;;;21.25;48.24;100435.19;5032140;28;20467;-49
2023/06/03 10:19:41;;;;;;;3.90;0.77;;;;;;;21.38;48.59;100439.69;5032311;28;20443;-50
2023/06/03 10:22:10;;;;;;;1.50;1.40;;;;;;;21.58;47.96;100442.72;5032239;28;20452;-50
2023/06/03 10:24:39;;;;;;;4.03;1.23;;;;;;;21.65;48.11;100426.03;5032313;28;20543;-50
2023/06/03 10:27:07;;;;;;;7.27;1.03;;;;;;;21.72;47.67;100421.91;5032068;28;20554;-50
2023/06/03 10:29:35;;;;;;;1.67;1.53;;;;;;;21.96;46.75;100408.44;5032109;28;20475;-50
2023/06/03 10:32:05;;;;;;;2.00;1.13;;;;;;;21.71;47.78;100422.91;5032161;28;20531;-49
2023/06/03 10:34:41;;;;;;;1.80;1.70;;;;;;;21.98;47.52;100412.75;5032361;28;20475;-49
2023/06/03 10:37:13;;;;;;;1.10;1.00;;;;;;;22.14;47.35;100418.78;5032289;28;20582;-50
2023/06/03 10:39:43;;;;;;;1.80;1.00;;;;;;;22.54;46.72;100412.22;5031947;28;20463;-50
2023/06/03 10:42:11;;;;;;;1.07;0.80;;;;;;;22.31;46.56;100405.81;5032211;28;20459;-50
2023/06/03 10:44:39;;;;;;;3.20;1.10;;;;;;;22.53;45.56;100419.47;5032091;28;21003;-50
2023/06/03 10:47:10;;;;;;;1.83;1.73;;;;;;;22.58;46.84;100411.84;5032070;28;20474;-49
2023/06/03 10:49:41;;;;;;;1.50;1.37;;;;;;;22.77;46.54;100411.31;5032028;28;20451;-50
2023/06/03 10:52:27;;;;;;;7.10;1.97;;;;;;;23.08;44.64;100411.66;5032110;28;20543;-50
2023/06/03 10:55:10;;;;;;;5.33;1.47;;;;;;;22.55;44.92;100406.66;5032076;28;20953;-50
2023/06/03 10:57:46;;;;;;;3.43;1.53;;;;;;;22.85;45.34;100408.88;5032087;28;20459;-50
2023/06/03 11:00:32;;;;;;;2.73;1.87;;;;;;;22.85;45.46;100402.59;5032138;28;21113;-50
2023/06/03 11:03:06;;;;;;;4.60;1.53;;;;;;;23.00;45.72;100412.25;5031920;28;20492;-49
2023/06/03 11:05:33;;;;;;;4.83;1.23;;;;;;;22.65;46.20;100405.00;5031937;28;20979;-49
2023/06/03 11:07:59;;;;;;;6.00;1.43;;;;;;;22.43;45.86;100410.31;5031975;28;20529;-50
2023/06/03 11:10:40;;;;;;;4.47;2.03;;;;;;;22.40;46.14;100407.84;5031841;28;20456;-49
2023/06/03 11:13:08;;;;;;;1.80;1.70;;;;;;;22.62;45.95;100401.66;5031808;28;20436;-50
2023/06/03 11:15:57;;;;;;;1.77;1.67;;;;;;;22.95;46.37;100399.06;5031798;28;20937;-50
2023/06/03 11:18:24;;;;;;;1.60;1.50;;;;;;;23.10;45.94;100405.13;5031834;28;20452;-50
2023/06/03 11:20:50;;;;;;;1.70;1.40;;;;;;;23.27;45.29;100398.34;5025211;28;20458;-50
2023/06/03 11:23:43;;;;;;;1.33;1.23;;;;;;;23.32;45.31;100407.00;5031670;28;20483;-50
2023/06/03 11:26:33;;;;;;;0.87;0.87;;;;;;;23.13;44.93;100404.00;5031931;28;20447;-50
2023/06/03 11:29:04;;;;;;;2.47;2.37;;;;;;;22.98;44.33;100397.94;5020248;28;20454;-50
2023/06/03 11:31:32;;;;;;;2.47;1.67;;;;;;;23.50;44.03;100397.38;5035448;28;20509;-50
2023/06/03 11:34:17;;;;;;;2.23;1.33;;;;;;;23.27;44.10;100406.50;5035329;28;20925;-50
2023/06/03 11:36:46;;;;;;;4.07;1.30;;;;;;;23.48;44.54;100404.78;5035292;28;20471;-49
2023/06/03 11:39:13;;;;;;;2.00;1.90;;;;;;;23.31;43.87;100397.16;5035370;28;20959;-49
2023/06/03 11:41:58;;;;;;;3.07;2.77;;;;;;;23.61;45.14;100393.84;5035265;28;20474;-49
2023/06/03 11:44:25;;;;;;;2.03;1.57;;;;;;;23.11;44.05;100393.28;5034965;28;20519;-49
2023/06/03 11:46:55;;;;;;;1.10;1.00;;;;;;;23.31;44.48;100400.72;5035548;28;20486;-49
2023/06/03 11:49:22;;;;;;;2.23;1.43;;;;;;;23.19;43.78;100392.69;5034882;28;20447;-49
2023/06/03 11:51:55;;;;;;;1.53;1.40;;;;;;;23.39;43.60;100382.94;5035085;28;20485;-49
2023/06/03 11:54:21;;;;;;;4.47;1.43;;;;;;;23.33;43.60;100387.03;5035927;28;21020;-48
2023/06/03 11:56:50;;;;;;;1.67;1.57;;;;;;;23.50;43.74;100372.97;5035232;28;20525;-49
2023/06/03 11:59:40;;;;;;;2.60;2.07;;;;;;;23.60;43.35;100373.13;5035042;28;20535;-49
2023/06/03 12:02:07;;;;;;;1.40;1.30;;;;;;;23.21;43.52;100386.16;5035016;28;20470;-51
2023/06/03 12:04:35;;;;;;;2.03;1.93;;;;;;;23.00;43.37;100379.72;5035283;28;20487;-50
2023/06/03 12:07:10;;;;;;;3.13;1.77;;;;;;;23.19;43.06;100363.72;5038443;28;20599;-50
2023/06/03 12:09:36;;;;;;;4.10;1.43;;;;;;;23.55;44.65;100369.88;5036542;28;20521;-51
2023/06/03 12:12:07;;;;;;;2.70;2.50;;;;;;;23.32;43.19;100369.88;5046603;28;20455;-51
2023/06/03 12:14:38;;;;;;;2.23;2.03;;;;;;;23.28;44.19;100357.53;5034830;28;20452;-49
2023/06/03 12:17:15;;;;;;;3.57;3.27;;;;;;;23.19;44.17;100366.44;5034428;28;20529;-50
2023/06/03 12:19:44;;;;;;;1.63;1.53;;;;;;;23.08;44.54;100363.72;5033190;28;20447;-49
2023/06/03 12:22:12;;;;;;;2.73;1.67;;;;;;;22.91;44.39;100366.91;5036218;28;20481;-51
2023/06/03 12:24:43;;;;;;;3.97;1.57;;;;;;;22.97;44.97;100364.56;5035644;28;20519;-49
2023/06/03 12:27:10;;;;;;;2.20;2.00;;;;;;;23.23;43.78;100348.06;5034281;28;20478;-49
2023/06/03 12:29:53;;;;;;;1.77;1.67;;;;;;;23.71;44.10;100353.22;5034309;28;20482;-50
2023/06/03 12:32:20;;;;;;;10.30;1.97;;;;;;;23.45;43.62;100353.47;5022239;28;20963;-50
2023/06/03 12:34:47;;;;;;;1.93;1.47;;;;;;;23.76;43.83;100346.44;5034340;28;20452;-53
2023/06/03 12:37:29;;;;;;;1.77;1.67;;;;;;;23.46;44.10;100343.50;5034408;28;20471;-50
2023/06/03 12:39:57;;;;;;;5.43;2.03;;;;;;;23.61;44.15;100358.56;5034205;28;20447;-51
2023/06/03 12:42:34;;;;;;;18.37;2.63;;;;;;;23.66;43.99;100345.47;5032893;28;20608;-49
2023/06/03 12:45:02;;;;;;;17.30;3.23;;;;;;;23.45;43.04;100336.34;5033890;28;20549;-50
2023/06/03 12:47:29;;;;;;;9.47;2.70;;;;;;;23.68;44.28;100334.47;5034328;28;20478;-50
2023/06/03 12:50:09;;;;;;;5.13;2.10;;;;;;;23.69;43.58;100337.06;5033874;28;21164;-49
2023/06/03 12:52:37;;;;;;;2.07;1.90;;;;;;;23.67;43.44;100330.91;5033882;28;20501;-50
2023/06/03 12:55:09;;;;;;;3.20;1.93;;;;;;;23.79;44.14;100332.59;5033968;28;20419;-50
2023/06/03 12:57:40;;;;;;;7.70;2.57;;;;;;;23.64;43.09;100336.59;5033821;28;20521;-49
2023/06/03 13:00:09;;;;;;;1.37;1.27;;;;;;;24.08;43.21;100337.44;5032658;28;20609;-50
2023/06/03 13:02:37;;;;;;;1.57;1.47;;;;;;;24.36;42.25;100325.13;5033745;28;20452;-49
2023/06/03 13:05:05;;;;;;;23.53;2.13;;;;;;;24.32;41.28;100326.41;5033612;28;20491;-49
2023/06/03 13:07:36;;;;;;;1.57;1.47;;;;;;;23.97;41.56;100322.03;5033439;28;20499;-50
2023/06/03 13:10:03;;;;;;;19.03;2.97;;;;;;;24.23;42.88;100322.56;5033608;28;20455;-50
2023/06/03 13:12:31;;;;;;;18.27;3.10;;;;;;;24.47;41.60;100335.94;5033618;28;20478;-50
2023/06/03 13:14:59;;;;;;;2.23;1.90;;;;;;;23.94;42.40;100333.16;5033522;28;20452;-50
2023/06/03 13:17:26;;;;;;;10.07;2.80;;;;;;;24.17;42.52;100320.38;5033395;28;20474;-50
2023/06/03 13:19:53;;;;;;;16.53;2.87;;;;;;;24.15;42.94;100322.38;5033419;28;20460;-49
2023/06/03 13:22:21;;;;;;;5.37;2.73;;;;;;;23.82;41.81;100318.75;5033107;28;20452;-49
2023/06/03 13:24:48;;;;;;;2.80;1.87;;;;;;;23.97;42.08;100321.19;5033417;28;20944;-49
2023/06/03 13:27:14;;;;;;;2.77;2.27;;;;;;;23.98;42.50;100318.34;5033300;28;20800;-49
2023/06/03 13:29:41;;;;;;;38.53;6.33;;;;;;;24.25;42.77;100315.13;5033008;28;20448;-50
2023/06/03 13:32:09;;;;;;;3.43;2.00;;;;;;;24.02;42.67;100325.25;5019922;28;20448;-50
2023/06/03 13:34:36;;;;;;;2.23;1.80;;;;;;;24.39;42.59;100306.69;5033136;28;20452;-50
2023/06/03 13:37:05;;;;;;;3.00;2.70;;;;;;;24.51;41.98;100312.94;5019931;28;20479;-50
2023/06/03 13:39:35;;;;;;;4.10;1.87;;;;;;;24.31;41.81;100305.66;5033176;28;20525;-50
2023/06/03 13:42:02;;;;;;;8.67;4.20;;;;;;;24.14;41.80;100307.06;5032997;28;20487;-50
2023/06/03 13:44:32;;;;;;;4.60;2.47;;;;;;;24.02;41.34;100302.66;5032844;28;20571;-49
2023/06/03 13:47:01;;;;;;;2.90;2.40;;;;;;;23.96;41.71;100306.75;5032872;28;20486;-49
2023/06/03 13:49:27;;;;;;;40.57;6.87;;;;;;;24.40;42.51;100311.16;5032368;28;20974;-49
2023/06/03 13:51:54;;;;;;;8.27;2.40;;;;;;;24.65;42.40;100301.72;5032323;28;20510;-49
2023/06/03 13:54:21;;;;;;;27.73;4.70;;;;;;;24.54;41.48;100301.81;5032676;28;20439;-49
2023/06/03 13:56:55;;;;;;;11.47;1.97;;;;;;;24.31;42.56;100298.38;5032593;28;21012;-49
2023/06/03 13:59:22;;;;;;;1.83;1.60;;;;;;;24.52;40.95;100310.09;5032749;28;20452;-49
2023/06/03 14:01:51;;;;;;;9.63;1.90;;;;;;;24.21;41.28;100303.69;5032575;28;20452;-49
2023/06/03 14:04:19;;;;;;;2.60;1.90;;;;;;;24.31;41.26;100297.50;5032514;28;20904;-49
2023/06/03 14:06:49;;;;;;;3.43;2.13;;;;;;;24.31;40.89;100292.06;5032665;28;20460;-48
2023/06/03 14:09:16;;;;;;;9.30;1.67;;;;;;;24.40;41.62;100284.00;5032731;28;20826;-49
2023/06/03 14:11:42;;;;;;;3.83;2.70;;;;;;;24.33;41.55;100299.09;5032839;28;20870;-49
2023/06/03 14:14:09;;;;;;;1.57;1.47;;;;;;;24.14;40.22;100286.19;5032546;28;20487;-49
2023/06/03 14:16:35;;;;;;;4.10;2.00;;;;;;;24.51;40.15;100293.91;5032404;28;20471;-49
2023/06/03 14:19:02;;;;;;;1.57;1.47;;;;;;;24.40;40.54;100302.16;5033141;28;20452;-50
2023/06/03 14:21:28;;;;;;;2.90;1.90;;;;;;;24.34;41.36;100295.38;5032578;28;20534;-49
2023/06/03 14:23:55;;;;;;;7.70;1.80;;;;;;;24.01;41.02;100287.38;5032307;28;20488;-50
2023/06/03 14:26:22;;;;;;;3.93;2.13;;;;;;;23.99;42.21;100287.50;5032339;28;20472;-50
2023/06/03 14:28:49;;;;;;;2.90;2.33;;;;;;;24.08;41.54;100285.84;5032237;28;20451;-50
2023/06/03 14:31:16;;;;;;;2.70;2.20;;;;;;;24.27;40.83;100285.16;5032372;28;20988;-50
2023/06/03 14:33:59;;;;;;;6.53;1.83;;;;;;;23.79;41.73;100288.28;5032868;28;20498;-50
2023/06/03 14:36:25;;;;;;;1.80;1.70;;;;;;;24.41;42.13;100276.69;5032899;28;20476;-50
2023/06/03 14:38:52;;;;;;;2.30;1.80;;;;;;;24.63;39.94;100287.41;5032498;28;20447;-50
2023/06/03 14:41:18;;;;;;;15.80;1.87;;;;;;;24.66;39.96;100269.97;5031905;28;20428;-50
2023/06/03 14:43:45;;;;;;;2.70;1.70;;;;;;;24.75;40.35;100264.59;5031944;28;20502;-50
2023/06/03 14:46:11;;;;;;;1.70;1.23;;;;;;;24.26;40.43;100270.69;5031853;28;20494;-50
2023/06/03 14:48:38;;;;;;;9.23;2.07;;;;;;;24.23;39.76;100269.09;5032100;28;20466;-50
2023/06/03 14:51:04;;;;;;;3.43;1.50;;;;;;;24.39;40.48;100268.66;5031856;28;20452;-50
2023/06/03 14:53:31;;;;;;;15.83;2.10;;;;;;;24.22;39.73;100272.78;5029814;28;20543;-49
2023/06/03 14:55:58;;;;;;;1.83;1.73;;;;;;;24.40;39.60;100274.97;5031183;28;20450;-50
2023/06/03 14:58:24;;;;;;;2.80;2.60;;;;;;;24.57;40.48;100271.66;5031998;28;20443;-49
2023/06/03 15:00:51;;;;;;;1.30;1.20;;;;;;;24.64;38.87;100266.53;5032182;28;20479;-49
2023/06/03 15:03:20;;;;;;;3.60;3.10;;;;;;;24.71;38.43;100268.59;5032244;28;20452;-49
2023/06/03 15:05:46;;;;;;;4.60;2.10;;;;;;;24.44;39.36;100271.00;5035705;28;21051;-49
2023/06/03 15:08:13;;;;;;;3.10;1.73;;;;;;;24.27;39.11;100269.72;5035942;28;20551;-49
2023/06/03 15:10:39;;;;;;;1.87;1.57;;;;;;;24.03;39.69;100278.09;5035812;28;20940;-50
2023/06/03 15:13:06;;;;;;;2.33;1.97;;;;;;;23.99;39.67;100264.91;5036136;28;20454;-49
2023/06/03 15:15:32;;;;;;;4.70;1.90;;;;;;;23.83;40.54;100271.59;5036097;28;20447;-52
2023/06/03 15:17:58;;;;;;;10.73;1.80;;;;;;;23.68;40.75;100262.03;5035954;28;20574;-51
2023/06/03 15:20:26;;;;;;;1.73;1.63;;;;;;;23.69;40.43;100260.19;5035781;28;20463;-50
2023/06/03 15:22:53;;;;;;;11.13;1.73;;;;;;;23.93;39.89;100266.28;5035652;28;20944;-51
2023/06/03 15:25:19;;;;;;;2.03;1.60;;;;;;;23.80;38.93;100262.88;5035402;28;20491;-50
2023/06/03 15:27:46;;;;;;;1.77;1.67;;;;;;;24.13;39.94;100265.47;5035490;28;20471;-50
2023/06/03 15:30:12;;;;;;;3.40;1.73;;;;;;;24.08;38.72;100272.25;5035363;28;20447;-50
2023/06/03 15:32:39;;;;;;;2.10;2.00;;;;;;;24.39;38.52;100257.78;5035476;28;20505;-50
2023/06/03 15:35:06;;;;;;;5.13;1.77;;;;;;;24.31;38.25;100259.47;5035246;28;20875;-51
2023/06/03 15:37:32;;;;;;;1.70;1.60;;;;;;;24.16;38.74;100254.31;5035112;28;20480;-50
2023/06/03 15:39:59;;;;;;;2.57;2.17;;;;;;;24.28;39.32;100257.84;5035097;28;20484;-51
2023/06/03 15:42:28;;;;;;;2.60;1.77;;;;;;;24.52;38.58;100247.56;5034969;28;20466;-50
2023/06/03 15:44:55;;;;;;;1.60;1.50;;;;;;;24.50;38.69;100245.97;5035014;28;21021;-50
2023/06/03 15:47:22;;;;;;;2.07;1.43;;;;;;;24.61;38.18;100245.91;5035082;28;20467;-50
2023/06/03 15:49:50;;;;;;;3.50;2.10;;;;;;;24.55;39.13;100245.59;5034950;28;20479;-50
2023/06/03 15:52:17;;;;;;;2.17;1.97;;;;;;;24.56;38.13;100252.75;5035058;28;20458;-51
2023/06/03 15:54:44;;;;;;;2.43;2.20;;;;;;;24.40;38.12;100243.22;5035331;28;20444;-50
2023/06/03 15:57:11;;;;;;;1.10;1.03;;;;;;;24.67;38.77;100249.94;5035294;28;20467;-51
2023/06/03 15:59:37;;;;;;;6.03;1.30;;;;;;;24.56;39.35;100242.75;5035089;28;20462;-50
2023/06/03 16:02:04;;;;;;;11.27;1.50;;;;;;;24.39;39.95;100236.03;5035052;28;20453;-52
2023/06/03 16:04:34;;;;;;;2.20;1.23;;;;;;;24.40;39.50;100243.22;5034918;28;20657;-50
2023/06/03 16:07:03;;;;;;;2.53;2.10;;;;;;;24.20;39.05;100239.47;5034674;28;20933;-50
2023/06/03 16:09:30;;;;;;;4.17;1.30;;;;;;;24.53;38.41;100226.69;5035043;28;20452;-50
2023/06/03 16:11:57;;;;;;;2.40;1.90;;;;;;;24.24;38.79;100231.91;5034659;28;20828;-50
2023/06/03 16:14:23;;;;;;;2.70;1.47;;;;;;;24.08;39.07;100226.94;5033235;28;20555;-50
2023/06/03 16:16:50;;;;;;;2.20;2.00;;;;;;;24.13;38.84;100232.00;5034619;28;20511;-50
2023/06/03 16:19:16;;;;;;;1.63;1.53;;;;;;;24.22;39.64;100218.47;5033480;28;20458;-50
2023/06/03 16:21:46;;;;;;;5.70;1.30;;;;;;;24.18;38.34;100221.59;5034352;28;20867;-50
2023/06/03 16:24:14;;;;;;;1.37;1.27;;;;;;;24.14;38.74;100225.56;5034627;28;20490;-50
2023/06/03 16:26:42;;;;;;;2.60;1.47;;;;;;;24.23;39.31;100241.06;5034419;28;20467;-50
2023/06/03 16:29:11;;;;;;;2.60;2.40;;;;;;;24.14;39.94;100237.28;5034738;28;20509;-49
2023/06/03 16:31:38;;;;;;;1.43;1.33;;;;;;;24.05;38.70;100235.34;5034460;28;20534;-49
2023/06/03 16:34:05;;;;;;;5.03;1.57;;;;;;;24.16;39.02;100226.28;5034365;28;20452;-49
2023/06/03 16:36:31;;;;;;;4.67;2.57;;;;;;;24.27;39.35;100231.66;5034227;28;20471;-49
2023/06/03 16:38:58;;;;;;;3.87;1.47;;;;;;;24.38;39.40;100226.16;5034518;28;20482;-49
2023/06/03 16:41:27;;;;;;;1.50;1.40;;;;;;;24.04;39.52;100232.78;5033997;28;20451;-50
2023/06/03 16:43:54;;;;;;;1.00;1.00;;;;;;;24.08;38.58;100231.50;5034278;28;20448;-49
2023/06/03 16:46:21;;;;;;;1.87;1.70;;;;;;;24.24;38.77;100226.47;5033953;28;20486;-49
2023/06/03 16:48:47;;;;;;;4.60;1.40;;;;;;;24.07;39.06;100224.34;5033884;28;20471;-50
2023/06/03 16:51:14;;;;;;;1.37;1.27;;;;;;;23.98;39.26;100230.56;5034096;28;20454;-50
2023/06/03 16:53:42;;;;;;;1.53;1.43;;;;;;;23.99;39.45;100226.88;5034206;28;20447;-50
2023/06/03 16:56:10;;;;;;;1.63;1.53;;;;;;;24.15;39.38;100235.44;5033761;28;20451;-49
2023/06/03 16:58:37;;;;;;;7.27;1.63;;;;;;;24.13;38.77;100234.72;5033936;28;20952;-50
2023/06/03 17:01:03;;;;;;;1.53;0.93;;;;;;;23.88;38.82;100239.53;5033728;28;20448;-51
2023/06/03 17:03:30;;;;;;;1.70;1.03;;;;;;;23.68;38.67;100232.19;5033837;28;20974;-50
2023/06/03 17:05:57;;;;;;;3.03;1.43;;;;;;;23.77;38.31;100239.56;5033599;28;20904;-49
2023/06/03 17:08:23;;;;;;;3.07;1.70;;;;;;;23.81;39.62;100222.00;5033956;28;20447;-49
2023/06/03 17:10:49;;;;;;;2.13;1.97;;;;;;;23.82;38.79;100228.31;5033417;28;20448;-49
2023/06/03 17:13:16;;;;;;;1.20;1.10;;;;;;;23.58;39.25;100226.69;5033738;28;20448;-49
2023/06/03 17:15:43;;;;;;;1.67;1.57;;;;;;;23.66;39.35;100222.44;5033445;28;20527;-50
2023/06/03 17:18:10;;;;;;;1.43;1.30;;;;;;;23.80;39.13;100233.00;5032578;28;20471;-50
2023/06/03 17:20:37;;;;;;;1.10;0.90;;;;;;;23.73;39.68;100229.97;5033624;28;20538;-49
2023/06/03 17:23:03;;;;;;;1.13;0.60;;;;;;;23.71;40.81;100226.53;5033659;28;20452;-49
2023/06/03 17:25:30;;;;;;;5.17;1.60;;;;;;;23.60;40.33;100232.84;5033330;28;20491;-49
2023/06/03 17:27:56;;;;;;;2.63;1.33;;;;;;;23.61;40.28;100233.69;5032596;28;20506;-49
2023/06/03 17:30:23;;;;;;;1.57;0.90;;;;;;;23.77;39.69;100230.56;5033250;28;20448;-49
2023/06/03 17:32:49;;;;;;;55.10;2.20;;;;;;;23.51;39.53;100236.28;5033373;28;20487;-49
2023/06/03 17:35:16;;;;;;;2.40;2.30;;;;;;;23.45;39.81;100236.81;5033367;28;20885;-50
2023/06/03 17:37:42;;;;;;;12.07;2.40;;;;;;;23.23;40.39;100235.00;5033148;28;20515;-49
2023/06/03 17:40:10;;;;;;;10.20;1.23;;;;;;;23.31;39.99;100234.38;5033163;28;20451;-49
2023/06/03 17:42:36;;;;;;;1.43;1.03;;;;;;;23.10;40.84;100233.41;5033107;28;20486;-49
2023/06/03 17:45:03;;;;;;;20.10;1.70;;;;;;;23.21;40.27;100220.69;5032837;28;21005;-50
2023/06/03 17:47:30;;;;;;;1.23;1.13;;;;;;;23.11;41.25;100232.41;5031915;28;20526;-49
2023/06/03 17:49:56;;;;;;;1.40;1.27;;;;;;;23.22;41.23;100232.41;5033074;28;20459;-50
2023/06/03 17:52:23;;;;;;;1.17;1.03;;;;;;;23.03;41.81;100223.06;5033014;28;20448;-50
2023/06/03 17:54:49;;;;;;;1.50;1.40;;;;;;;23.11;41.78;100225.13;5033028;28;20991;-50
2023/06/03 17:57:16;;;;;;;1.37;1.17;;;;;;;22.79;41.88;100229.59;5032821;28;20555;-50
2023/06/03 17:59:42;;;;;;;2.53;1.30;;;;;;;22.92;41.86;100225.78;5033039;28;20451;-50
2023/06/03 18:02:09;;;;;;;2.30;1.53;;;;;;;22.76;41.88;100236.97;5033019;28;20447;-49
2023/06/03 18:04:36;;;;;;;1.63;1.47;;;;;;;22.59;43.10;100237.44;5032908;28;20519;-49
2023/06/03 18:07:02;;;;;;;1.13;1.03;;;;;;;22.51;43.31;100241.75;5032746;28;20467;-50